Mustafa Sofuoglu — TCOJ7 — position and weather

sailwx.info

Track history (hours):
 
Tides and Currents Weather Stations Pressure Air Temp Water Temp Dewpoint Dewpoint Depression Visibility Wind Speed Wind Dir Waves Ship Positions

Mustafa Sofuoglu

Last reported at 2014-Jul-31 18:34 UTC. Time now 2014-Aug-01 11:58 UTC.
Position N 40°56' E 029°03'.

Length 106 m; draft 5.4 m.

Type: Cargo ship. MMSI: 271000831.

Date/timePositionNaut miles runAvg speedWind from/ knotsBaromVisibWave heightAir tempDewpointWater temp
2014-Jul-31 18:34N 40°56' E 029°03'7 7.2
2014-Jul-31 17:34N 40°52' E 029°11'0 0.0
2014-Jul-31 16:28N 40°52' E 029°11'0 0.0
2014-Jul-31 15:28N 40°52' E 029°11'0 0.0
2014-Jul-31 14:28N 40°52' E 029°11'0 0.1
2014-Jul-31 13:28N 40°52' E 029°11'0 0.0
2014-Jul-31 12:28N 40°52' E 029°11'0 0.0
2014-Jul-31 11:28N 40°52' E 029°11'0 0.0
2014-Jul-31 10:28N 40°52' E 029°11'0 0.0
2014-Jul-31 09:28N 40°52' E 029°11'0 0.0
2014-Jul-31 08:28N 40°52' E 029°11'8 8.6
2014-Jul-31 07:33N 40°46' E 029°18'  
2014-Jul-28 19:33N 40°01' E 026°13'1111.3
2014-Jul-28 18:33N 39°51' E 026°06'1412.2
2014-Jul-28 17:26N 39°38' E 026°01'1212.8
2014-Jul-28 16:30N 39°27' E 025°55'2412.3
2014-Jul-28 14:33N 39°03' E 025°51'6412.7
2014-Jul-28 09:33N 38°03' E 026°18'1313.0
2014-Jul-28 08:33N 37°52' E 026°26'1312.7
2014-Jul-28 07:32N 37°40' E 026°34'1212.6
2014-Jul-28 06:33N 37°30' E 026°43'1312.6
2014-Jul-28 05:33N 37°20' E 026°52'1312.4
2014-Jul-28 04:30N 37°09' E 027°02'1312.5
2014-Jul-28 03:27N 36°59' E 027°11'1910.0
2014-Jul-28 01:31N 36°41' E 027°20'1212.1
2014-Jul-28 00:33N 36°35' E 027°33'1212.1
2014-Jul-27 23:33N 36°31' E 027°47'  
2014-Jul-24 23:11N 33°48' E 034°44'813.1
2014-Jul-24 22:33N 33°40' E 034°44'2613.2
2014-Jul-24 20:33N 33°13' E 034°44'1413.6
2014-Jul-24 19:33N 32°60' E 034°44'19 1.8
2014-Jul-24 09:21N 32°49' E 035°02'  
2014-Jul-21 21:32N 32°53' E 034°53'1513.1
2014-Jul-21 20:24N 32°56' E 034°35'  
Track history (hours):
 
Tides and Currents Weather Stations Pressure Air Temp Water Temp Dewpoint Dewpoint Depression Visibility Wind Speed Wind Dir Waves Ship Positions

Mustafa Sofuoglu

Last reported at 2014-Jul-31 18:34 UTC. Time now 2014-Aug-01 11:58 UTC.
Position N 40°56' E 029°03'.

Length 106 m; draft 5.4 m.

Type: Cargo ship. MMSI: 271000831.

Date/timePositionNaut miles runAvg speedWind from/ knotsBaromVisibWave heightAir tempDewpointWater temp
2014-Jul-31 18:34N 40°56' E 029°03'7 7.2
2014-Jul-31 17:34N 40°52' E 029°11'0 0.0
2014-Jul-31 16:28N 40°52' E 029°11'0 0.0
2014-Jul-31 15:28N 40°52' E 029°11'0 0.0
2014-Jul-31 14:28N 40°52' E 029°11'0 0.1
2014-Jul-31 13:28N 40°52' E 029°11'0 0.0
2014-Jul-31 12:28N 40°52' E 029°11'0 0.0
2014-Jul-31 11:28N 40°52' E 029°11'0 0.0
2014-Jul-31 10:28N 40°52' E 029°11'0 0.0
2014-Jul-31 09:28N 40°52' E 029°11'0 0.0
2014-Jul-31 08:28N 40°52' E 029°11'8 8.6
2014-Jul-31 07:33N 40°46' E 029°18'  
2014-Jul-28 19:33N 40°01' E 026°13'1111.3
2014-Jul-28 18:33N 39°51' E 026°06'1412.2
2014-Jul-28 17:26N 39°38' E 026°01'1212.8
2014-Jul-28 16:30N 39°27' E 025°55'2412.3
2014-Jul-28 14:33N 39°03' E 025°51'6412.7
2014-Jul-28 09:33N 38°03' E 026°18'1313.0
2014-Jul-28 08:33N 37°52' E 026°26'1312.7
2014-Jul-28 07:32N 37°40' E 026°34'1212.6
2014-Jul-28 06:33N 37°30' E 026°43'1312.6
2014-Jul-28 05:33N 37°20' E 026°52'1312.4
2014-Jul-28 04:30N 37°09' E 027°02'1312.5
2014-Jul-28 03:27N 36°59' E 027°11'1910.0
2014-Jul-28 01:31N 36°41' E 027°20'1212.1
2014-Jul-28 00:33N 36°35' E 027°33'1212.1
2014-Jul-27 23:33N 36°31' E 027°47'  
2014-Jul-24 23:11N 33°48' E 034°44'813.1
2014-Jul-24 22:33N 33°40' E 034°44'2613.2
2014-Jul-24 20:33N 33°13' E 034°44'1413.6
2014-Jul-24 19:33N 32°60' E 034°44'19 1.8
2014-Jul-24 09:21N 32°49' E 035°02'  
2014-Jul-21 21:32N 32°53' E 034°53'1513.1
2014-Jul-21 20:24N 32°56' E 034°35'  

Dump ship's entire track history